createdAt,value
2016-10-23T00:00:43.724Z,0
2016-10-23T00:01:44.057Z,0
2016-10-23T00:02:44.090Z,0
2016-10-23T00:03:44.097Z,0
2016-10-23T00:04:43.477Z,0
2016-10-23T00:05:43.820Z,0
2016-10-23T00:06:44.155Z,0
2016-10-23T00:07:44.475Z,0
2016-10-23T00:08:44.524Z,0
2016-10-23T00:09:44.514Z,0
2016-10-23T00:10:44.215Z,0
2016-10-23T00:11:43.914Z,0
2016-10-23T00:12:44.560Z,0
2016-10-23T00:13:44.580Z,0
2016-10-23T00:14:44.285Z,0
2016-10-23T00:15:44.341Z,0
2016-10-23T00:16:44.628Z,0
2016-10-23T00:17:44.017Z,0
2016-10-23T00:18:43.738Z,0
2016-10-23T00:19:44.686Z,0
2016-10-23T00:20:44.694Z,0
2016-10-23T00:21:44.730Z,0
2016-10-23T00:22:44.096Z,0
2016-10-23T00:23:45.096Z,0
2016-10-23T00:24:44.125Z,0
2016-10-23T00:25:45.090Z,0
2016-10-23T00:26:44.479Z,0
2016-10-23T00:27:44.184Z,0
2016-10-23T00:28:44.195Z,0
2016-10-23T00:29:44.862Z,0
2016-10-23T00:30:43.970Z,0
2016-10-23T00:31:44.562Z,0
2016-10-23T00:32:44.928Z,0
2016-10-23T00:33:44.285Z,0
2016-10-23T00:34:45.246Z,0
2016-10-23T00:35:44.322Z,0
2016-10-23T00:36:44.347Z,0
2016-10-23T00:37:44.349Z,0
2016-10-23T00:38:44.994Z,0
2016-10-23T00:39:44.693Z,0
2016-10-23T00:40:44.727Z,0
2016-10-23T00:41:44.835Z,0
2016-10-23T00:42:44.741Z,0
2016-10-23T00:43:44.473Z,0
2016-10-23T00:44:45.091Z,0
2016-10-23T00:45:45.112Z,0
2016-10-23T00:46:44.499Z,0
2016-10-23T00:47:44.510Z,0
2016-10-23T00:48:44.850Z,0
2016-10-23T00:49:44.545Z,0
2016-10-23T00:50:44.565Z,0
2016-10-23T00:51:44.575Z,0
2016-10-23T00:52:44.911Z,0
2016-10-23T00:53:45.240Z,0
2016-10-23T00:54:44.633Z,0
2016-10-23T00:55:44.958Z,0
2016-10-23T00:56:45.295Z,0
2016-10-23T00:57:44.695Z,0
2016-10-23T00:58:44.822Z,0
2016-10-23T00:59:45.344Z,0
2016-10-23T01:00:45.675Z,0
2016-10-23T01:01:45.372Z,0
2016-10-23T01:02:44.758Z,0
2016-10-23T01:03:44.778Z,0
2016-10-23T01:04:45.741Z,0
2016-10-23T01:05:45.772Z,0
2016-10-23T01:06:45.147Z,0
2016-10-23T01:07:45.795Z,0
2016-10-23T01:08:44.857Z,0
2016-10-23T01:09:44.565Z,0
2016-10-23T01:10:45.211Z,0
2016-10-23T01:11:45.227Z,0
2016-10-23T01:12:45.875Z,0
2016-10-23T01:13:45.256Z,0
2016-10-23T01:14:45.594Z,0
2016-10-23T01:15:44.977Z,0
2016-10-23T01:16:45.307Z,0
2016-10-23T01:17:45.321Z,0
2016-10-23T01:18:45.653Z,0
2016-10-23T01:19:45.359Z,0
2016-10-23T01:20:45.058Z,0
2016-10-23T01:21:45.100Z,0
2016-10-23T01:22:45.731Z,0
2016-10-23T01:23:45.425Z,0
2016-10-23T01:24:45.157Z,0
2016-10-23T01:25:45.138Z,0
2016-10-23T01:26:45.786Z,0
2016-10-23T01:27:45.181Z,0
2016-10-23T01:28:45.506Z,0
2016-10-23T01:29:45.211Z,0
2016-10-23T01:30:45.535Z,0
2016-10-23T01:31:45.242Z,0
2016-10-23T01:32:45.888Z,0
2016-10-23T01:33:45.582Z,0
2016-10-23T01:34:44.981Z,0
2016-10-23T01:35:45.624Z,0
2016-10-23T01:36:45.632Z,0
2016-10-23T01:37:45.335Z,0
2016-10-23T01:39:00.259Z,0
2016-10-23T01:39:45.728Z,0
2016-10-23T01:40:45.715Z,0
2016-10-23T01:41:45.113Z,0
2016-10-23T01:42:46.065Z,0
2016-10-23T01:43:45.467Z,0
2016-10-23T01:44:45.773Z,0
2016-10-23T01:45:45.801Z,0
2016-10-23T01:46:45.804Z,0
2016-10-23T01:47:46.133Z,0
2016-10-23T01:48:45.829Z,0
2016-10-23T01:49:45.849Z,0
2016-10-23T01:50:45.863Z,0
2016-10-23T01:51:45.567Z,0
2016-10-23T01:52:46.258Z,0
2016-10-23T01:53:46.243Z,0
2016-10-23T01:54:45.940Z,0
2016-10-23T01:55:45.955Z,0
2016-10-23T01:56:45.967Z,0
2016-10-23T01:57:46.001Z,0
2016-10-23T01:58:46.002Z,0
2016-10-23T01:59:45.705Z,0
2016-10-23T02:00:46.075Z,0
2016-10-23T02:01:45.733Z,0
2016-10-23T02:02:45.754Z,0
2016-10-23T02:03:46.710Z,0
2016-10-23T02:04:46.444Z,0
2016-10-23T02:05:45.512Z,0
2016-10-23T02:06:45.809Z,0
2016-10-23T02:07:45.829Z,0
2016-10-23T02:08:46.475Z,0
2016-10-23T02:09:46.806Z,0
2016-10-23T02:10:46.188Z,0
2016-10-23T02:11:45.923Z,0
2016-10-23T02:12:46.225Z,0
2016-10-23T02:13:45.955Z,0
2016-10-23T02:14:46.258Z,0
2016-10-23T02:15:45.975Z,0
2016-10-23T02:16:45.976Z,0
2016-10-23T02:17:45.987Z,0
2016-10-23T02:18:46.332Z,0
2016-10-23T02:19:46.337Z,0
2016-10-23T02:20:46.668Z,0
2016-10-23T02:21:46.684Z,0
2016-10-23T02:22:46.385Z,0
2016-10-23T02:23:46.714Z,0
2016-10-23T02:24:46.421Z,0
2016-10-23T02:25:46.123Z,0
2016-10-23T02:26:46.494Z,0
2016-10-23T02:27:46.487Z,0
2016-10-23T02:28:46.166Z,0
2016-10-23T02:29:46.502Z,0
2016-10-23T02:30:46.545Z,0
2016-10-23T02:31:46.544Z,0
2016-10-23T02:32:45.906Z,0
2016-10-23T02:33:46.562Z,0
2016-10-23T02:34:46.260Z,0
2016-10-23T02:35:46.628Z,0
2016-10-23T02:36:46.919Z,0
2016-10-23T02:37:46.935Z,0
2016-10-23T02:38:46.955Z,0
2016-10-23T02:39:46.338Z,0
2016-10-23T02:40:46.676Z,0
2016-10-23T02:41:47.004Z,0
2016-10-23T02:42:47.017Z,0
2016-10-23T02:43:46.714Z,0
2016-10-23T02:44:46.101Z,0
2016-10-23T02:45:46.437Z,0
2016-10-23T02:46:46.456Z,0
2016-10-23T02:47:46.146Z,0
2016-10-23T02:48:47.446Z,0
2016-10-23T02:49:46.508Z,0
2016-10-23T02:50:46.194Z,0
2016-10-23T02:51:46.210Z,0
2016-10-23T02:52:46.855Z,0
2016-10-23T02:53:47.186Z,0
2016-10-23T02:54:47.199Z,0
2016-10-23T02:55:47.224Z,0
2016-10-23T02:56:46.918Z,0
2016-10-23T02:57:46.644Z,0
2016-10-23T02:58:46.631Z,0
2016-10-23T02:59:46.647Z,0
2016-10-23T03:00:46.975Z,0
2016-10-23T03:01:46.993Z,0
2016-10-23T03:02:47.017Z,0
2016-10-23T03:03:47.348Z,0
2016-10-23T03:04:47.093Z,0
2016-10-23T03:05:46.456Z,0
2016-10-23T03:06:46.448Z,0
2016-10-23T03:07:47.447Z,0
2016-10-23T03:08:47.421Z,0
2016-10-23T03:09:46.802Z,0
2016-10-23T03:10:46.822Z,0
2016-10-23T03:11:46.835Z,0
2016-10-23T03:12:46.857Z,0
2016-10-23T03:13:47.496Z,0
2016-10-23T03:14:46.883Z,0
2016-10-23T03:15:47.844Z,0
2016-10-23T03:16:47.563Z,0
2016-10-23T03:17:47.558Z,0
2016-10-23T03:18:46.628Z,0
2016-10-23T03:19:47.332Z,0
2016-10-23T03:20:47.314Z,0
2016-10-23T03:21:47.626Z,0
2016-10-23T03:22:46.732Z,0
2016-10-23T03:23:47.334Z,0
2016-10-23T03:24:47.668Z,0
2016-10-23T03:25:47.367Z,0
2016-10-23T03:26:47.070Z,0
2016-10-23T03:27:47.400Z,0
2016-10-23T03:28:47.094Z,0
2016-10-23T03:29:47.428Z,0
2016-10-23T03:30:46.817Z,0
2016-10-23T03:31:47.463Z,0
2016-10-23T03:32:47.475Z,0
2016-10-23T03:33:47.174Z,0
2016-10-23T03:34:47.187Z,0
2016-10-23T03:35:47.206Z,0
2016-10-23T03:36:47.545Z,0
2016-10-23T03:37:47.551Z,0
2016-10-23T03:38:46.937Z,0
2016-10-23T03:39:48.213Z,0
2016-10-23T03:40:47.912Z,0
2016-10-23T03:41:47.972Z,0
2016-10-23T03:42:47.665Z,0
2016-10-23T03:43:47.652Z,0
2016-10-23T03:44:47.659Z,0
2016-10-23T03:45:47.985Z,0
2016-10-23T03:46:48.008Z,0
2016-10-23T03:47:47.707Z,0
2016-10-23T03:48:48.042Z,0
2016-10-23T03:49:47.771Z,0
2016-10-23T03:50:48.071Z,0
2016-10-23T03:51:48.080Z,0
2016-10-23T03:52:47.512Z,0
2016-10-23T03:53:47.799Z,0
2016-10-23T03:54:47.830Z,0
2016-10-23T03:55:47.832Z,0
2016-10-23T03:56:47.548Z,0
2016-10-23T03:57:47.544Z,0
2016-10-23T03:58:47.881Z,0
2016-10-23T03:59:48.204Z,0
2016-10-23T04:00:47.352Z,0
2016-10-23T04:01:48.247Z,0
2016-10-23T04:02:47.946Z,0
2016-10-23T04:03:48.304Z,0
2016-10-23T04:04:47.968Z,0
2016-10-23T04:05:48.309Z,0
2016-10-23T04:06:47.683Z,0
2016-10-23T04:07:47.751Z,0
2016-10-23T04:08:48.345Z,0
2016-10-23T04:09:47.413Z,0
2016-10-23T04:10:47.753Z,0
2016-10-23T04:11:48.071Z,0
2016-10-23T04:12:48.414Z,0
2016-10-23T04:13:48.425Z,0
2016-10-23T04:14:47.488Z,0
2016-10-23T04:15:48.450Z,0
2016-10-23T04:16:48.797Z,0
2016-10-23T04:17:47.855Z,0
2016-10-23T04:18:48.506Z,0
2016-10-23T04:19:48.190Z,0
2016-10-23T04:20:48.531Z,0
2016-10-23T04:21:48.260Z,0
2016-10-23T04:22:48.245Z,0
2016-10-23T04:23:48.256Z,0
2016-10-23T04:24:48.272Z,0
2016-10-23T04:25:47.984Z,0
2016-10-23T04:26:48.617Z,0
2016-10-23T04:27:48.321Z,0
2016-10-23T04:28:48.649Z,0
2016-10-23T04:29:48.350Z,0
2016-10-23T04:30:49.010Z,0
2016-10-23T04:31:48.376Z,0
2016-10-23T04:32:48.709Z,0
2016-10-23T04:33:48.726Z,0
2016-10-23T04:34:48.757Z,0
2016-10-23T04:35:48.470Z,0
2016-10-23T04:36:48.155Z,0
2016-10-23T04:37:48.472Z,0
2016-10-23T04:38:48.829Z,0
2016-10-23T04:39:48.522Z,0
2016-10-23T04:40:48.833Z,0
2016-10-23T04:41:48.214Z,0
2016-10-23T04:42:48.236Z,0
2016-10-23T04:43:48.584Z,0
2016-10-23T04:44:48.582Z,0
2016-10-23T04:45:48.914Z,0
2016-10-23T04:46:48.609Z,0
2016-10-23T04:47:48.940Z,0
2016-10-23T04:48:48.638Z,0
2016-10-23T04:49:48.665Z,0
2016-10-23T04:50:48.731Z,0
2016-10-23T04:51:48.369Z,0
2016-10-23T04:52:49.018Z,0
2016-10-23T04:53:48.413Z,0
2016-10-23T04:54:48.430Z,0
2016-10-23T04:55:48.743Z,0
2016-10-23T04:56:48.441Z,0
2016-10-23T04:57:49.409Z,0
2016-10-23T04:58:48.474Z,0
2016-10-23T04:59:48.804Z,0
2016-10-23T05:00:48.507Z,0
2016-10-23T05:01:48.837Z,0
2016-10-23T05:02:48.242Z,0
2016-10-23T05:03:48.872Z,0
2016-10-23T05:04:48.603Z,0
2016-10-23T05:05:48.585Z,0
2016-10-23T05:06:48.910Z,0
2016-10-23T05:07:48.614Z,0
2016-10-23T05:08:48.969Z,0
2016-10-23T05:09:48.980Z,0
2016-10-23T05:10:48.659Z,0
2016-10-23T05:11:49.320Z,0
2016-10-23T05:12:49.327Z,0
2016-10-23T05:13:48.384Z,0
2016-10-23T05:14:49.064Z,0
2016-10-23T05:15:49.075Z,0
2016-10-23T05:16:49.070Z,0
2016-10-23T05:17:49.715Z,0
2016-10-23T05:18:49.452Z,0
2016-10-23T05:19:49.113Z,0
2016-10-23T05:20:49.133Z,0
2016-10-23T05:21:48.825Z,0
2016-10-23T05:22:49.480Z,0
2016-10-23T05:23:49.187Z,0
2016-10-23T05:24:48.554Z,0
2016-10-23T05:25:49.863Z,0
2016-10-23T05:26:49.565Z,0
2016-10-23T05:27:49.238Z,0
2016-10-23T05:28:49.253Z,0
2016-10-23T05:29:48.960Z,0
2016-10-23T05:30:49.598Z,0
2016-10-23T05:31:49.615Z,0
2016-10-23T05:32:49.633Z,0
2016-10-23T05:33:49.690Z,0
2016-10-23T05:34:49.976Z,0
2016-10-23T05:35:49.361Z,0
2016-10-23T05:36:49.085Z,0
2016-10-23T05:37:49.708Z,0
2016-10-23T05:38:49.114Z,0
2016-10-23T05:39:49.422Z,0
2016-10-23T05:40:50.093Z,0
2016-10-23T05:41:49.807Z,0
2016-10-23T05:42:49.806Z,0
2016-10-23T05:43:49.485Z,0
2016-10-23T05:44:49.184Z,0
2016-10-23T05:45:49.834Z,0
2016-10-23T05:46:49.846Z,0
2016-10-23T05:47:49.245Z,0
2016-10-23T05:48:49.578Z,0
2016-10-23T05:49:49.589Z,0
2016-10-23T05:50:49.279Z,0
2016-10-23T05:51:49.299Z,0
2016-10-23T05:52:49.667Z,0
2016-10-23T05:53:49.334Z,0
2016-10-23T05:54:49.684Z,0
2016-10-23T05:55:49.672Z,0
2016-10-23T05:56:49.688Z,0
2016-10-23T05:57:49.388Z,0
2016-10-23T05:58:50.036Z,0
2016-10-23T05:59:49.735Z,0
2016-10-23T06:00:50.073Z,0
2016-10-23T06:01:50.086Z,0
2016-10-23T06:02:49.173Z,0
2016-10-23T06:03:50.425Z,0
2016-10-23T06:04:49.852Z,0
2016-10-23T06:05:49.829Z,0
2016-10-23T06:06:49.844Z,0
2016-10-23T06:07:50.179Z,0
2016-10-23T06:08:49.877Z,0
2016-10-23T06:09:49.580Z,0
2016-10-23T06:10:49.908Z,0
2016-10-23T06:11:49.620Z,0
2016-10-23T06:12:49.625Z,0
2016-10-23T06:13:50.272Z,0
2016-10-23T06:14:50.597Z,0
2016-10-23T06:15:49.707Z,0
2016-10-23T06:16:50.005Z,0
2016-10-23T06:17:49.708Z,0
2016-10-23T06:18:50.057Z,0
2016-10-23T06:19:50.079Z,0
2016-10-23T06:20:50.420Z,0
2016-10-23T06:21:49.449Z,0
2016-10-23T06:22:50.413Z,0
2016-10-23T06:23:49.798Z,0
2016-10-23T06:24:50.448Z,0
2016-10-23T06:25:50.141Z,0
2016-10-23T06:26:50.162Z,0
2016-10-23T06:27:49.860Z,0
2016-10-23T06:28:50.191Z,0
2016-10-23T06:29:49.573Z,0
2016-10-23T06:30:50.222Z,0
2016-10-23T06:31:49.919Z,0
2016-10-23T06:32:50.268Z,0
2016-10-23T06:33:50.270Z,0
2016-10-23T06:34:50.321Z,0
2016-10-23T06:35:49.680Z,0
2016-10-23T06:36:50.013Z,0
2016-10-23T06:37:50.649Z,0
2016-10-23T06:38:50.661Z,0
2016-10-23T06:39:50.372Z,0
2016-10-23T06:40:50.691Z,0
2016-10-23T06:41:50.399Z,0
2016-10-23T06:42:50.124Z,0
2016-10-23T06:43:50.742Z,0
2016-10-23T06:44:50.782Z,0
2016-10-23T06:45:49.845Z,0
2016-10-23T06:46:49.863Z,0
2016-10-23T06:47:50.825Z,0
2016-10-23T06:48:50.197Z,5
2016-10-23T06:49:50.529Z,5
2016-10-23T06:50:49.908Z,5
2016-10-23T06:51:50.241Z,5
2016-10-23T06:52:50.575Z,5
2016-10-23T06:53:50.591Z,5
2016-10-23T06:54:50.288Z,5
2016-10-23T06:55:49.990Z,5
2016-10-23T06:56:50.637Z,5
2016-10-23T06:57:50.031Z,5
2016-10-23T06:58:51.009Z,5
2016-10-23T06:59:50.710Z,5
2016-10-23T07:00:51.018Z,5
2016-10-23T07:01:51.075Z,5
2016-10-23T07:02:51.064Z,5
2016-10-23T07:03:50.452Z,5
2016-10-23T07:04:50.767Z,5
2016-10-23T07:05:50.491Z,10
2016-10-23T07:06:50.503Z,10
2016-10-23T07:07:50.203Z,5
2016-10-23T07:08:50.517Z,5
2016-10-23T07:09:51.186Z,10
2016-10-23T07:10:50.269Z,5
2016-10-23T07:11:50.560Z,5
2016-10-23T07:12:50.699Z,5
2016-10-23T07:13:50.599Z,5
2016-10-23T07:14:50.632Z,5
2016-10-23T07:15:50.655Z,10
2016-10-23T07:16:50.647Z,10
2016-10-23T07:17:50.664Z,5
2016-10-23T07:18:50.994Z,5
2016-10-23T07:19:51.013Z,0
2016-10-23T07:20:50.710Z,0
2016-10-23T07:21:50.730Z,0
2016-10-23T07:22:51.060Z,0
2016-10-23T07:23:51.436Z,0
2016-10-23T07:24:51.097Z,0
2016-10-23T07:25:51.112Z,5
2016-10-23T07:26:51.440Z,5
2016-10-23T07:27:50.561Z,5
2016-10-23T07:28:50.528Z,5
2016-10-23T07:29:50.552Z,5
2016-10-23T07:30:51.297Z,5
2016-10-23T07:31:51.217Z,5
2016-10-23T07:32:50.920Z,25
2016-10-23T07:33:50.608Z,5
2016-10-23T07:34:51.589Z,5
2016-10-23T07:35:50.970Z,5
2016-10-23T07:36:51.291Z,5
2016-10-23T07:37:51.307Z,5
2016-10-23T07:38:51.643Z,5
2016-10-23T07:39:51.338Z,5
2016-10-23T07:40:51.351Z,10
2016-10-23T07:41:51.391Z,20
2016-10-23T07:42:51.080Z,10
2016-10-23T07:43:51.403Z,15
2016-10-23T07:44:51.419Z,10
2016-10-23T07:45:51.800Z,10
2016-10-23T07:46:52.082Z,10
2016-10-23T07:47:51.786Z,10
2016-10-23T07:48:51.221Z,10
2016-10-23T07:49:50.872Z,10
2016-10-23T07:50:51.203Z,10
2016-10-23T07:51:51.543Z,10
2016-10-23T07:52:51.556Z,10
2016-10-23T07:53:50.932Z,10
2016-10-23T07:54:52.216Z,10
2016-10-23T07:55:51.286Z,15
2016-10-23T07:56:51.300Z,25
2016-10-23T07:57:51.009Z,45
2016-10-23T07:58:51.964Z,45
2016-10-23T07:59:51.353Z,40
2016-10-23T08:00:51.375Z,35
2016-10-23T08:01:51.066Z,25
2016-10-23T08:02:51.719Z,20
2016-10-23T08:03:52.089Z,25
2016-10-23T08:04:51.751Z,105
2016-10-23T08:05:51.805Z,35
2016-10-23T08:06:51.797Z,60
2016-10-23T08:07:52.125Z,120
2016-10-23T08:08:51.826Z,60
2016-10-23T08:09:52.162Z,65
2016-10-23T08:10:51.540Z,65
2016-10-23T08:11:51.868Z,55
2016-10-23T08:12:52.516Z,35
2016-10-23T08:13:51.902Z,20
2016-10-23T08:14:51.967Z,25
2016-10-23T08:15:51.988Z,30
2016-10-23T08:16:51.638Z,30
2016-10-23T08:17:52.292Z,45
2016-10-23T08:18:51.993Z,60
2016-10-23T08:19:52.032Z,60
2016-10-23T08:20:52.342Z,30
2016-10-23T08:21:52.372Z,40
2016-10-23T08:22:52.391Z,30
2016-10-23T08:23:51.772Z,115
2016-10-23T08:24:52.101Z,135
2016-10-23T08:25:51.799Z,105
2016-10-23T08:26:52.135Z,75
2016-10-23T08:27:52.465Z,85
2016-10-23T08:28:51.853Z,30
2016-10-23T08:29:52.530Z,30
2016-10-23T08:30:52.207Z,40
2016-10-23T08:31:52.537Z,40
2016-10-23T08:32:52.867Z,35
2016-10-23T08:33:52.904Z,25
2016-10-23T08:34:51.642Z,30
2016-10-23T08:35:51.664Z,25
2016-10-23T08:36:52.315Z,25
2016-10-23T08:37:52.016Z,25
2016-10-23T08:38:52.349Z,25
2016-10-23T08:39:52.060Z,25
2016-10-23T08:40:52.711Z,25
2016-10-23T08:41:52.446Z,30
2016-10-23T08:42:52.746Z,40
2016-10-23T08:43:52.130Z,35
2016-10-23T08:44:52.144Z,35
2016-10-23T08:45:51.885Z,35
2016-10-23T08:46:51.862Z,30
2016-10-23T08:47:52.556Z,25
2016-10-23T08:48:52.867Z,25
2016-10-23T08:49:52.235Z,20
2016-10-23T08:50:52.252Z,20
2016-10-23T08:51:52.587Z,25
2016-10-23T08:52:52.612Z,25
2016-10-23T08:53:52.945Z,25
2016-10-23T08:54:52.639Z,25
2016-10-23T08:55:52.986Z,25
2016-10-23T08:56:52.687Z,25
2016-10-23T08:57:52.711Z,30
2016-10-23T08:58:52.088Z,35
2016-10-23T08:59:52.780Z,35
2016-10-23T09:00:52.761Z,30
2016-10-23T09:01:52.809Z,30
2016-10-23T09:02:52.165Z,35
2016-10-23T09:03:53.131Z,25
2016-10-23T09:04:53.166Z,25
2016-10-23T09:05:52.868Z,25
2016-10-23T09:06:52.554Z,25
2016-10-23T09:07:53.258Z,25
2016-10-23T09:08:52.279Z,30
2016-10-23T09:09:53.281Z,30
2016-10-23T09:10:52.940Z,30
2016-10-23T09:11:52.653Z,30
2016-10-23T09:12:53.042Z,30
2016-10-23T09:13:52.998Z,35
2016-10-23T09:14:53.058Z,40
2016-10-23T09:15:52.726Z,55
2016-10-23T09:16:53.067Z,65
2016-10-23T09:17:53.141Z,60
2016-10-23T09:18:53.101Z,50
2016-10-23T09:19:53.447Z,45
2016-10-23T09:20:53.147Z,40
2016-10-23T09:21:53.472Z,100
2016-10-23T09:22:53.512Z,160
2016-10-23T09:23:53.208Z,130
2016-10-23T09:24:53.269Z,50
2016-10-23T09:25:52.966Z,40
2016-10-23T09:26:52.947Z,45
2016-10-23T09:27:52.958Z,20
2016-10-23T09:28:52.989Z,20
2016-10-23T09:29:53.003Z,20
2016-10-23T09:30:53.669Z,20
2016-10-23T09:31:53.669Z,20
2016-10-23T09:32:53.430Z,45
2016-10-23T09:33:52.783Z,75
2016-10-23T09:34:53.426Z,55
2016-10-23T09:35:53.749Z,25
2016-10-23T09:36:53.453Z,20
2016-10-23T09:37:53.480Z,20
2016-10-23T09:38:53.499Z,20
2016-10-23T09:39:53.832Z,20
2016-10-23T09:40:53.891Z,20
2016-10-23T09:41:54.189Z,20
2016-10-23T09:42:53.657Z,20
2016-10-23T09:43:53.280Z,25
2016-10-23T09:44:53.302Z,20
2016-10-23T09:45:53.634Z,25
2016-10-23T09:46:53.408Z,25
2016-10-23T09:47:53.365Z,25
2016-10-23T09:48:53.710Z,50
2016-10-23T09:49:54.065Z,60
2016-10-23T09:50:53.745Z,65
2016-10-23T09:51:54.076Z,65
2016-10-23T09:52:54.110Z,55
2016-10-23T09:53:54.123Z,40
2016-10-23T09:54:54.140Z,20
2016-10-23T09:55:53.840Z,45
2016-10-23T09:56:53.228Z,50
2016-10-23T09:57:53.572Z,55
2016-10-23T09:58:54.223Z,45
2016-10-23T09:59:53.295Z,60
2016-10-23T10:00:53.630Z,50
2016-10-23T10:01:53.968Z,55
2016-10-23T10:02:53.987Z,50
2016-10-23T10:03:54.010Z,60
2016-10-23T10:04:54.040Z,60
2016-10-23T10:05:54.053Z,25
2016-10-23T10:06:54.710Z,30
2016-10-23T10:07:53.804Z,30
2016-10-23T10:08:54.117Z,20
2016-10-23T10:09:53.508Z,25
2016-10-23T10:10:54.164Z,70
2016-10-23T10:11:53.550Z,30
2016-10-23T10:12:53.934Z,25
2016-10-23T10:13:54.232Z,25
2016-10-23T10:14:54.567Z,50
2016-10-23T10:15:54.586Z,60
2016-10-23T10:16:54.305Z,55
2016-10-23T10:17:53.731Z,50
2016-10-23T10:18:54.339Z,50
2016-10-23T10:19:54.703Z,50
2016-10-23T10:20:54.070Z,45
2016-10-23T10:21:54.423Z,55
2016-10-23T10:22:54.478Z,35
2016-10-23T10:23:53.813Z,35
2016-10-23T10:24:54.473Z,30
2016-10-23T10:25:54.486Z,50
2016-10-23T10:26:54.197Z,45
2016-10-23T10:27:55.163Z,35
2016-10-23T10:28:54.558Z,40
2016-10-23T10:29:54.284Z,20
2016-10-23T10:30:54.632Z,55
2016-10-23T10:31:54.946Z,60
2016-10-23T10:32:54.643Z,50
2016-10-23T10:33:54.671Z,30
2016-10-23T10:34:54.375Z,70
2016-10-23T10:35:54.419Z,55
2016-10-23T10:36:55.046Z,35
2016-10-23T10:37:54.760Z,40
2016-10-23T10:38:54.200Z,40
2016-10-23T10:39:55.121Z,40
2016-10-23T10:40:54.513Z,65
2016-10-23T10:41:55.197Z,60
2016-10-23T10:42:54.562Z,45
2016-10-23T10:43:54.578Z,20
2016-10-23T10:44:54.921Z,55
2016-10-23T10:45:54.943Z,55
2016-10-23T10:46:54.965Z,20
2016-10-23T10:47:55.343Z,65
2016-10-23T10:48:54.382Z,50
2016-10-23T10:49:54.740Z,50
2016-10-23T10:50:55.070Z,50
2016-10-23T10:51:55.400Z,55
2016-10-23T10:52:55.103Z,55
2016-10-23T10:53:55.121Z,45
2016-10-23T10:54:55.502Z,45
2016-10-23T10:55:55.207Z,45
2016-10-23T10:56:54.877Z,45
2016-10-23T10:57:55.533Z,45
2016-10-23T10:58:54.927Z,45
2016-10-23T10:59:55.268Z,45
2016-10-23T11:00:55.289Z,45
2016-10-23T11:01:55.639Z,45
2016-10-23T11:02:55.335Z,45
2016-10-23T11:03:54.730Z,30
2016-10-23T11:04:55.380Z,40
2016-10-23T11:05:55.732Z,45
2016-10-23T11:06:55.138Z,40
2016-10-23T11:07:55.140Z,45
2016-10-23T11:08:55.159Z,40
2016-10-23T11:09:55.547Z,40
2016-10-23T11:10:54.937Z,40
2016-10-23T11:11:55.557Z,40
2016-10-23T11:12:55.576Z,40
2016-10-23T11:13:55.611Z,40
2016-10-23T11:14:56.522Z,40
2016-10-23T11:15:55.335Z,40
2016-10-23T11:16:55.369Z,40
2016-10-23T11:17:55.692Z,40
2016-10-23T11:18:55.734Z,40
2016-10-23T11:19:55.436Z,35
2016-10-23T11:20:55.454Z,40
2016-10-23T11:21:55.176Z,40
2016-10-23T11:22:56.192Z,40
2016-10-23T11:23:56.159Z,40
2016-10-23T11:24:56.087Z,40
2016-10-23T11:25:56.040Z,40
2016-10-23T11:26:57.360Z,40
2016-10-23T11:27:55.949Z,40
2016-10-23T11:28:56.281Z,40
2016-10-23T11:29:56.012Z,40
2016-10-23T11:30:56.335Z,40
2016-10-23T11:31:56.071Z,40
2016-10-23T11:32:56.380Z,40
2016-10-23T11:33:56.100Z,30
2016-10-23T11:34:55.793Z,30
2016-10-23T11:35:56.133Z,30
2016-10-23T11:36:56.165Z,25
2016-10-23T11:37:56.836Z,40
2016-10-23T11:38:56.661Z,30
2016-10-23T11:39:57.195Z,30
2016-10-23T11:40:56.685Z,30
2016-10-23T11:41:56.019Z,40
2016-10-23T11:42:56.647Z,40
2016-10-23T11:44:10.904Z,40
2016-10-23T11:44:56.999Z,40
2016-10-23T11:45:56.391Z,40
2016-10-23T11:46:56.385Z,35
2016-10-23T11:47:55.799Z,35
2016-10-23T11:48:57.932Z,35
2016-10-23T11:49:56.497Z,35
2016-10-23T11:50:57.198Z,35
2016-10-23T11:51:56.895Z,35
2016-10-23T11:52:57.491Z,35
2016-10-23T11:53:57.302Z,40
2016-10-23T11:54:57.222Z,40
2016-10-23T11:55:58.718Z,40
2016-10-23T11:56:57.917Z,40
2016-10-23T11:57:57.793Z,40
2016-10-23T11:58:56.888Z,40
2016-10-23T11:59:56.980Z,20
2016-10-23T12:00:56.876Z,15
2016-10-23T12:01:57.181Z,15
2016-10-23T12:02:56.620Z,15
2016-10-23T12:03:56.843Z,40
2016-10-23T12:04:57.206Z,40
2016-10-23T12:05:56.896Z,40
2016-10-23T12:06:56.905Z,35
2016-10-23T12:07:56.944Z,35
2016-10-23T12:08:57.275Z,35
2016-10-23T12:09:56.991Z,35
2016-10-23T12:10:56.695Z,35
2016-10-23T12:11:57.045Z,35
2016-10-23T12:12:57.073Z,35
2016-10-23T12:13:56.771Z,35
2016-10-23T12:14:56.480Z,35
2016-10-23T12:15:56.833Z,35
2016-10-23T12:17:12.054Z,30
2016-10-23T12:17:56.554Z,30
2016-10-23T12:18:56.903Z,35
2016-10-23T12:19:57.561Z,35
2016-10-23T12:20:57.901Z,35
2016-10-23T12:21:57.310Z,35
2016-10-23T12:22:57.338Z,35
2016-10-23T12:23:57.338Z,25
2016-10-23T12:24:56.755Z,10
2016-10-23T12:25:57.732Z,10
2016-10-23T12:26:57.731Z,20
2016-10-23T12:27:57.141Z,30
2016-10-23T12:28:58.124Z,30
2016-10-23T12:29:57.552Z,30
2016-10-23T12:30:57.533Z,40
2016-10-23T12:31:57.557Z,30
2016-10-23T12:32:58.467Z,20
2016-10-23T12:33:57.294Z,15
2016-10-23T12:34:57.307Z,15
2016-10-23T12:35:57.325Z,20
2016-10-23T12:36:58.018Z,20
2016-10-23T12:37:57.703Z,20
2016-10-23T12:38:57.417Z,35
2016-10-23T12:39:57.433Z,40
2016-10-23T12:40:57.789Z,35
2016-10-23T12:41:58.140Z,25
2016-10-23T12:42:57.819Z,20
2016-10-23T12:43:57.848Z,20
2016-10-23T12:44:57.590Z,35
2016-10-23T12:45:58.097Z,15
2016-10-23T12:46:57.935Z,10
2016-10-23T12:47:57.951Z,15
2016-10-23T12:48:57.975Z,10
2016-10-23T12:49:57.690Z,10
2016-10-23T12:50:58.034Z,5
2016-10-23T12:51:58.052Z,5
2016-10-23T12:52:58.086Z,5
2016-10-23T12:53:58.117Z,5
2016-10-23T12:54:58.140Z,5
2016-10-23T12:55:58.804Z,10
2016-10-23T12:56:58.189Z,10
2016-10-23T12:57:58.521Z,10
2016-10-23T12:58:58.871Z,10
2016-10-23T12:59:58.273Z,10
2016-10-23T13:00:58.078Z,10
2016-10-23T13:01:57.780Z,5
2016-10-23T13:02:58.041Z,5
2016-10-23T13:03:58.364Z,5
2016-10-23T13:04:58.408Z,5
2016-10-23T13:05:58.430Z,5
2016-10-23T13:06:58.150Z,5
2016-10-23T13:07:58.493Z,5
2016-10-23T13:08:58.512Z,10
2016-10-23T13:09:58.523Z,10
2016-10-23T13:10:58.608Z,10
2016-10-23T13:11:57.937Z,10
2016-10-23T13:12:58.644Z,10
2016-10-23T13:13:58.304Z,10
2016-10-23T13:14:58.355Z,10
2016-10-23T13:15:58.660Z,10
2016-10-23T13:16:58.696Z,5
2016-10-23T13:17:58.732Z,5
2016-10-23T13:18:59.057Z,5
2016-10-23T13:19:59.137Z,5
2016-10-23T13:21:13.698Z,5
2016-10-23T13:21:58.494Z,5
2016-10-23T13:22:59.295Z,5
2016-10-23T13:23:58.594Z,5
2016-10-23T13:24:59.217Z,0
2016-10-23T13:25:58.907Z,0
2016-10-23T13:26:59.560Z,0
2016-10-23T13:27:59.326Z,0
2016-10-23T13:28:59.059Z,0
2016-10-23T13:29:59.014Z,0
2016-10-23T13:30:59.703Z,0
2016-10-23T13:31:59.056Z,0
2016-10-23T13:32:59.485Z,0
2016-10-23T13:33:59.101Z,0
2016-10-23T13:34:59.134Z,0
2016-10-23T13:35:59.195Z,0
2016-10-23T13:37:00.005Z,0
2016-10-23T13:37:59.274Z,0
2016-10-23T13:38:59.255Z,0
2016-10-23T13:39:59.596Z,0
2016-10-23T13:40:58.962Z,0
2016-10-23T13:41:59.614Z,0
2016-10-23T13:42:59.990Z,0
2016-10-23T13:43:59.983Z,0
2016-10-23T13:44:59.424Z,0
2016-10-23T13:45:59.389Z,0
2016-10-23T13:46:59.740Z,0
2016-10-23T13:48:00.074Z,0
2016-10-23T13:49:00.136Z,0
2016-10-23T13:49:59.821Z,0
2016-10-23T13:50:58.879Z,0
2016-10-23T13:51:59.251Z,0
2016-10-23T13:52:59.619Z,0
2016-10-23T13:53:59.295Z,0
2016-10-23T13:54:59.976Z,0
2016-10-23T13:56:00.005Z,0
2016-10-23T13:56:59.353Z,0
2016-10-23T13:57:59.534Z,0
2016-10-23T13:58:59.745Z,0
2016-10-23T13:59:59.095Z,0
2016-10-23T14:00:59.547Z,0
2016-10-23T14:01:59.783Z,0
2016-10-23T14:02:59.861Z,0
2016-10-23T14:03:59.510Z,0
2016-10-23T14:04:59.870Z,0
2016-10-23T14:05:59.904Z,0
2016-10-23T14:07:00.242Z,0
2016-10-23T14:07:59.941Z,0
2016-10-23T14:09:00.002Z,0
2016-10-23T14:10:00.387Z,0
2016-10-23T14:10:59.715Z,0
2016-10-23T14:12:00.050Z,0
2016-10-23T14:13:00.696Z,0
2016-10-23T14:14:00.067Z,0
2016-10-23T14:15:00.108Z,0
2016-10-23T14:16:00.103Z,0
2016-10-23T14:17:00.131Z,0
2016-10-23T14:18:00.185Z,0
2016-10-23T14:19:00.189Z,0
2016-10-23T14:19:59.951Z,0
2016-10-23T14:21:00.575Z,0
2016-10-23T14:22:00.314Z,0
2016-10-23T14:23:00.330Z,0
2016-10-23T14:23:59.655Z,0
2016-10-23T14:25:00.666Z,0
2016-10-23T14:26:00.374Z,0
2016-10-23T14:27:00.742Z,0
2016-10-23T14:28:00.738Z,0
2016-10-23T14:29:00.115Z,0
2016-10-23T14:30:00.474Z,0
2016-10-23T14:31:00.502Z,0
2016-10-23T14:31:59.862Z,5
2016-10-23T14:33:00.199Z,5
2016-10-23T14:34:00.684Z,5
2016-10-23T14:35:00.965Z,5